sensor_id;sensor_type;location;lat;lon;timestamp;P1;durP1;ratioP1;P2;durP2;ratioP2
51594;SDS011;37677;53.254;6.594;2024-03-23T00:55:06;31.33;;;8.20;;
51594;SDS011;37677;53.254;6.594;2024-03-23T00:57:33;35.10;;;8.48;;
51594;SDS011;37677;53.254;6.594;2024-03-23T00:59:59;31.17;;;7.25;;
51594;SDS011;37677;53.254;6.594;2024-03-23T01:02:25;24.95;;;7.47;;
51594;SDS011;37677;53.254;6.594;2024-03-23T01:04:51;30.25;;;7.70;;
51594;SDS011;37677;53.254;6.594;2024-03-23T01:07:17;29.38;;;7.85;;
51594;SDS011;37677;53.254;6.594;2024-03-23T01:09:43;38.63;;;8.10;;
51594;SDS011;37677;53.254;6.594;2024-03-23T01:12:09;28.02;;;6.75;;
51594;SDS011;37677;53.254;6.594;2024-03-23T01:14:35;28.38;;;7.55;;
51594;SDS011;37677;53.254;6.594;2024-03-23T01:17:01;31.48;;;7.45;;
51594;SDS011;37677;53.254;6.594;2024-03-23T01:19:27;31.48;;;6.80;;
51594;SDS011;37677;53.254;6.594;2024-03-23T01:21:53;29.48;;;7.57;;
51594;SDS011;37677;53.254;6.594;2024-03-23T01:24:19;24.00;;;6.80;;
51594;SDS011;37677;53.254;6.594;2024-03-23T01:26:45;28.58;;;6.80;;
51594;SDS011;37677;53.254;6.594;2024-03-23T01:29:11;22.42;;;6.78;;
51594;SDS011;37677;53.254;6.594;2024-03-23T01:31:37;26.13;;;6.55;;
51594;SDS011;37677;53.254;6.594;2024-03-23T01:34:03;32.47;;;7.63;;
51594;SDS011;37677;53.254;6.594;2024-03-23T01:36:29;27.60;;;7.22;;
51594;SDS011;37677;53.254;6.594;2024-03-23T01:38:56;28.67;;;7.00;;
51594;SDS011;37677;53.254;6.594;2024-03-23T01:41:23;30.27;;;7.03;;
51594;SDS011;37677;53.254;6.594;2024-03-23T01:43:49;30.52;;;6.95;;
51594;SDS011;37677;53.254;6.594;2024-03-23T01:46:16;26.73;;;6.20;;
51594;SDS011;37677;53.254;6.594;2024-03-23T01:48:42;26.85;;;6.95;;
51594;SDS011;37677;53.254;6.594;2024-03-23T01:51:08;24.63;;;7.15;;
51594;SDS011;37677;53.254;6.594;2024-03-23T01:53:36;30.00;;;6.82;;
51594;SDS011;37677;53.254;6.594;2024-03-23T01:56:02;24.25;;;6.65;;
51594;SDS011;37677;53.254;6.594;2024-03-23T01:58:28;22.10;;;6.35;;
51594;SDS011;37677;53.254;6.594;2024-03-23T02:00:56;28.95;;;6.57;;
51594;SDS011;37677;53.254;6.594;2024-03-23T02:03:23;30.10;;;7.25;;
51594;SDS011;37677;53.254;6.594;2024-03-23T02:05:50;24.35;;;6.40;;
51594;SDS011;37677;53.254;6.594;2024-03-23T02:08:20;26.58;;;7.07;;
51594;SDS011;37677;53.254;6.594;2024-03-23T02:10:46;37.10;;;8.95;;
51594;SDS011;37677;53.254;6.594;2024-03-23T02:13:13;30.08;;;7.53;;
51594;SDS011;37677;53.254;6.594;2024-03-23T02:15:40;21.58;;;6.93;;
51594;SDS011;37677;53.254;6.594;2024-03-23T02:18:07;23.38;;;6.22;;
51594;SDS011;37677;53.254;6.594;2024-03-23T02:20:33;26.02;;;7.10;;
51594;SDS011;37677;53.254;6.594;2024-03-23T02:23:00;24.25;;;6.53;;
51594;SDS011;37677;53.254;6.594;2024-03-23T02:25:26;22.08;;;6.05;;
51594;SDS011;37677;53.254;6.594;2024-03-23T02:27:52;21.85;;;6.18;;
51594;SDS011;37677;53.254;6.594;2024-03-23T02:30:19;28.38;;;6.88;;
51594;SDS011;37677;53.254;6.594;2024-03-23T02:32:45;28.02;;;6.30;;
51594;SDS011;37677;53.254;6.594;2024-03-23T02:35:11;24.73;;;6.43;;
51594;SDS011;37677;53.254;6.594;2024-03-23T02:37:37;22.17;;;6.15;;
51594;SDS011;37677;53.254;6.594;2024-03-23T02:40:03;28.23;;;5.93;;
51594;SDS011;37677;53.254;6.594;2024-03-23T02:42:30;24.02;;;5.88;;
51594;SDS011;37677;53.254;6.594;2024-03-23T02:44:56;18.52;;;5.43;;
51594;SDS011;37677;53.254;6.594;2024-03-23T02:47:23;20.25;;;6.20;;
51594;SDS011;37677;53.254;6.594;2024-03-23T02:49:49;25.77;;;5.35;;
51594;SDS011;37677;53.254;6.594;2024-03-23T02:52:15;21.25;;;6.35;;
51594;SDS011;37677;53.254;6.594;2024-03-23T02:54:41;22.63;;;5.50;;
51594;SDS011;37677;53.254;6.594;2024-03-23T02:57:10;22.25;;;6.03;;
51594;SDS011;37677;53.254;6.594;2024-03-23T02:59:36;18.70;;;5.68;;
51594;SDS011;37677;53.254;6.594;2024-03-23T03:02:03;22.98;;;5.85;;
51594;SDS011;37677;53.254;6.594;2024-03-23T03:04:30;19.85;;;5.72;;
51594;SDS011;37677;53.254;6.594;2024-03-23T03:06:56;22.48;;;5.68;;
51594;SDS011;37677;53.254;6.594;2024-03-23T03:09:22;20.92;;;5.47;;
51594;SDS011;37677;53.254;6.594;2024-03-23T03:11:48;21.02;;;5.50;;
51594;SDS011;37677;53.254;6.594;2024-03-23T03:14:14;27.40;;;5.63;;
51594;SDS011;37677;53.254;6.594;2024-03-23T03:16:40;23.13;;;5.55;;
51594;SDS011;37677;53.254;6.594;2024-03-23T03:19:06;20.60;;;5.82;;
51594;SDS011;37677;53.254;6.594;2024-03-23T03:21:32;20.77;;;5.90;;
51594;SDS011;37677;53.254;6.594;2024-03-23T03:23:58;17.17;;;4.60;;
51594;SDS011;37677;53.254;6.594;2024-03-23T03:26:24;19.83;;;5.53;;
51594;SDS011;37677;53.254;6.594;2024-03-23T03:28:50;21.08;;;5.13;;
51594;SDS011;37677;53.254;6.594;2024-03-23T03:31:17;20.88;;;5.63;;
51594;SDS011;37677;53.254;6.594;2024-03-23T03:33:43;22.77;;;5.28;;
51594;SDS011;37677;53.254;6.594;2024-03-23T03:36:09;16.05;;;4.53;;
51594;SDS011;37677;53.254;6.594;2024-03-23T03:38:35;23.30;;;4.72;;
51594;SDS011;37677;53.254;6.594;2024-03-23T03:41:02;19.40;;;5.13;;
51594;SDS011;37677;53.254;6.594;2024-03-23T03:43:28;20.20;;;4.80;;
51594;SDS011;37677;53.254;6.594;2024-03-23T03:45:54;26.52;;;5.90;;
51594;SDS011;37677;53.254;6.594;2024-03-23T03:48:20;20.67;;;4.97;;
51594;SDS011;37677;53.254;6.594;2024-03-23T03:50:47;16.67;;;5.18;;
51594;SDS011;37677;53.254;6.594;2024-03-23T03:53:13;21.45;;;5.35;;
51594;SDS011;37677;53.254;6.594;2024-03-23T03:55:39;21.02;;;4.82;;
51594;SDS011;37677;53.254;6.594;2024-03-23T03:58:05;19.63;;;4.85;;
51594;SDS011;37677;53.254;6.594;2024-03-23T04:00:31;28.10;;;5.10;;
51594;SDS011;37677;53.254;6.594;2024-03-23T04:02:57;19.10;;;4.82;;
51594;SDS011;37677;53.254;6.594;2024-03-23T04:05:23;32.15;;;6.07;;
51594;SDS011;37677;53.254;6.594;2024-03-23T04:07:50;22.50;;;5.13;;
51594;SDS011;37677;53.254;6.594;2024-03-23T04:10:16;18.95;;;4.88;;
51594;SDS011;37677;53.254;6.594;2024-03-23T04:12:43;22.20;;;4.38;;
51594;SDS011;37677;53.254;6.594;2024-03-23T04:15:09;21.70;;;4.63;;
51594;SDS011;37677;53.254;6.594;2024-03-23T04:17:36;24.23;;;5.32;;
51594;SDS011;37677;53.254;6.594;2024-03-23T04:20:02;17.35;;;5.13;;
51594;SDS011;37677;53.254;6.594;2024-03-23T04:22:33;18.77;;;4.45;;
51594;SDS011;37677;53.254;6.594;2024-03-23T04:24:59;22.58;;;5.35;;
51594;SDS011;37677;53.254;6.594;2024-03-23T04:27:31;23.70;;;5.47;;
51594;SDS011;37677;53.254;6.594;2024-03-23T04:29:57;19.48;;;4.10;;
51594;SDS011;37677;53.254;6.594;2024-03-23T04:32:25;16.33;;;4.30;;
51594;SDS011;37677;53.254;6.594;2024-03-23T04:34:51;18.58;;;4.72;;
51594;SDS011;37677;53.254;6.594;2024-03-23T04:37:18;24.45;;;5.40;;
51594;SDS011;37677;53.254;6.594;2024-03-23T04:39:44;19.90;;;4.70;;
51594;SDS011;37677;53.254;6.594;2024-03-23T04:42:11;17.23;;;4.47;;
51594;SDS011;37677;53.254;6.594;2024-03-23T04:44:37;15.02;;;4.32;;
51594;SDS011;37677;53.254;6.594;2024-03-23T04:47:03;23.52;;;5.20;;
51594;SDS011;37677;53.254;6.594;2024-03-23T04:49:30;16.10;;;4.80;;
51594;SDS011;37677;53.254;6.594;2024-03-23T04:51:56;23.10;;;5.45;;
51594;SDS011;37677;53.254;6.594;2024-03-23T04:54:23;21.20;;;5.20;;
51594;SDS011;37677;53.254;6.594;2024-03-23T04:56:50;16.67;;;4.72;;
51594;SDS011;37677;53.254;6.594;2024-03-23T04:59:16;16.63;;;4.93;;
51594;SDS011;37677;53.254;6.594;2024-03-23T05:01:42;22.13;;;4.53;;
51594;SDS011;37677;53.254;6.594;2024-03-23T05:04:08;28.27;;;5.22;;
51594;SDS011;37677;53.254;6.594;2024-03-23T05:06:35;23.73;;;5.13;;
51594;SDS011;37677;53.254;6.594;2024-03-23T05:09:01;24.73;;;4.70;;
51594;SDS011;37677;53.254;6.594;2024-03-23T05:11:36;24.88;;;5.38;;
51594;SDS011;37677;53.254;6.594;2024-03-23T05:14:03;20.83;;;5.30;;
51594;SDS011;37677;53.254;6.594;2024-03-23T05:16:29;18.60;;;4.25;;
51594;SDS011;37677;53.254;6.594;2024-03-23T05:18:55;22.98;;;4.85;;
51594;SDS011;37677;53.254;6.594;2024-03-23T05:21:21;19.88;;;4.35;;
51594;SDS011;37677;53.254;6.594;2024-03-23T05:23:47;19.52;;;4.38;;
51594;SDS011;37677;53.254;6.594;2024-03-23T05:26:14;21.30;;;4.47;;
51594;SDS011;37677;53.254;6.594;2024-03-23T05:28:40;18.90;;;5.03;;
51594;SDS011;37677;53.254;6.594;2024-03-23T05:31:06;19.73;;;4.18;;
51594;SDS011;37677;53.254;6.594;2024-03-23T05:33:34;24.10;;;4.55;;
51594;SDS011;37677;53.254;6.594;2024-03-23T05:36:00;17.23;;;4.55;;
51594;SDS011;37677;53.254;6.594;2024-03-23T05:38:26;18.23;;;4.10;;
51594;SDS011;37677;53.254;6.594;2024-03-23T05:40:56;20.02;;;4.43;;
51594;SDS011;37677;53.254;6.594;2024-03-23T05:43:22;18.67;;;4.38;;
51594;SDS011;37677;53.254;6.594;2024-03-23T05:45:58;21.75;;;4.72;;
51594;SDS011;37677;53.254;6.594;2024-03-23T05:48:25;15.63;;;4.20;;
51594;SDS011;37677;53.254;6.594;2024-03-23T05:50:51;26.92;;;4.80;;
51594;SDS011;37677;53.254;6.594;2024-03-23T05:53:18;21.98;;;4.88;;
51594;SDS011;37677;53.254;6.594;2024-03-23T05:55:47;17.42;;;4.18;;
51594;SDS011;37677;53.254;6.594;2024-03-23T05:58:17;22.25;;;3.90;;
51594;SDS011;37677;53.254;6.594;2024-03-23T06:00:43;15.95;;;3.92;;
51594;SDS011;37677;53.254;6.594;2024-03-23T06:03:10;17.33;;;4.03;;
51594;SDS011;37677;53.254;6.594;2024-03-23T06:05:36;20.75;;;4.22;;
51594;SDS011;37677;53.254;6.594;2024-03-23T06:08:02;17.20;;;4.15;;
51594;SDS011;37677;53.254;6.594;2024-03-23T06:10:29;22.42;;;4.05;;
51594;SDS011;37677;53.254;6.594;2024-03-23T06:12:55;21.02;;;4.70;;
51594;SDS011;37677;53.254;6.594;2024-03-23T06:15:21;19.40;;;4.68;;
51594;SDS011;37677;53.254;6.594;2024-03-23T06:17:47;19.13;;;4.07;;
51594;SDS011;37677;53.254;6.594;2024-03-23T06:20:14;20.00;;;4.82;;
51594;SDS011;37677;53.254;6.594;2024-03-23T06:22:40;21.50;;;4.82;;
51594;SDS011;37677;53.254;6.594;2024-03-23T06:25:06;17.90;;;4.25;;
51594;SDS011;37677;53.254;6.594;2024-03-23T06:27:32;17.25;;;4.03;;
51594;SDS011;37677;53.254;6.594;2024-03-23T06:29:59;17.25;;;4.00;;
51594;SDS011;37677;53.254;6.594;2024-03-23T06:32:25;18.52;;;3.75;;
51594;SDS011;37677;53.254;6.594;2024-03-23T06:34:51;11.70;;;3.53;;
51594;SDS011;37677;53.254;6.594;2024-03-23T06:37:17;16.83;;;3.92;;
51594;SDS011;37677;53.254;6.594;2024-03-23T06:39:45;14.65;;;3.20;;
51594;SDS011;37677;53.254;6.594;2024-03-23T06:42:11;17.27;;;3.63;;
51594;SDS011;37677;53.254;6.594;2024-03-23T06:44:38;12.63;;;3.67;;
51594;SDS011;37677;53.254;6.594;2024-03-23T06:47:05;12.73;;;3.50;;
51594;SDS011;37677;53.254;6.594;2024-03-23T06:49:31;10.27;;;3.10;;
51594;SDS011;37677;53.254;6.594;2024-03-23T06:51:57;14.10;;;3.42;;
51594;SDS011;37677;53.254;6.594;2024-03-23T06:54:24;14.10;;;3.47;;
51594;SDS011;37677;53.254;6.594;2024-03-23T06:56:50;11.18;;;3.50;;
51594;SDS011;37677;53.254;6.594;2024-03-23T06:59:16;15.45;;;4.25;;
51594;SDS011;37677;53.254;6.594;2024-03-23T07:01:42;12.73;;;3.55;;
51594;SDS011;37677;53.254;6.594;2024-03-23T07:04:09;11.18;;;3.30;;
51594;SDS011;37677;53.254;6.594;2024-03-23T07:06:35;13.57;;;3.30;;
51594;SDS011;37677;53.254;6.594;2024-03-23T07:09:07;10.85;;;3.03;;
51594;SDS011;37677;53.254;6.594;2024-03-23T07:11:33;15.63;;;3.38;;
51594;SDS011;37677;53.254;6.594;2024-03-23T07:13:59;12.70;;;3.10;;
51594;SDS011;37677;53.254;6.594;2024-03-23T07:16:26;12.55;;;3.95;;
51594;SDS011;37677;53.254;6.594;2024-03-23T07:18:52;13.80;;;3.05;;
51594;SDS011;37677;53.254;6.594;2024-03-23T07:21:18;12.82;;;3.42;;
51594;SDS011;37677;53.254;6.594;2024-03-23T07:23:44;13.90;;;3.45;;
51594;SDS011;37677;53.254;6.594;2024-03-23T07:26:11;14.90;;;3.35;;
51594;SDS011;37677;53.254;6.594;2024-03-23T07:28:37;17.08;;;3.10;;
51594;SDS011;37677;53.254;6.594;2024-03-23T07:31:08;14.18;;;2.85;;
51594;SDS011;37677;53.254;6.594;2024-03-23T07:33:35;10.45;;;3.40;;
51594;SDS011;37677;53.254;6.594;2024-03-23T07:36:01;12.32;;;3.25;;
51594;SDS011;37677;53.254;6.594;2024-03-23T07:38:28;11.00;;;2.70;;
51594;SDS011;37677;53.254;6.594;2024-03-23T07:41:04;9.95;;;2.85;;
51594;SDS011;37677;53.254;6.594;2024-03-23T07:43:30;10.50;;;3.17;;
51594;SDS011;37677;53.254;6.594;2024-03-23T07:45:56;7.45;;;2.70;;
51594;SDS011;37677;53.254;6.594;2024-03-23T07:48:22;9.88;;;2.90;;
51594;SDS011;37677;53.254;6.594;2024-03-23T07:50:58;11.60;;;3.25;;
51594;SDS011;37677;53.254;6.594;2024-03-23T07:53:24;9.07;;;3.13;;
51594;SDS011;37677;53.254;6.594;2024-03-23T07:55:58;12.85;;;2.95;;
51594;SDS011;37677;53.254;6.594;2024-03-23T07:58:25;11.75;;;2.95;;
51594;SDS011;37677;53.254;6.594;2024-03-23T08:00:52;11.68;;;2.80;;
51594;SDS011;37677;53.254;6.594;2024-03-23T08:03:18;10.02;;;2.70;;
51594;SDS011;37677;53.254;6.594;2024-03-23T08:05:44;8.10;;;2.92;;
51594;SDS011;37677;53.254;6.594;2024-03-23T08:08:10;7.20;;;2.58;;
51594;SDS011;37677;53.254;6.594;2024-03-23T08:10:37;10.38;;;3.13;;
51594;SDS011;37677;53.254;6.594;2024-03-23T08:13:03;9.70;;;2.95;;
51594;SDS011;37677;53.254;6.594;2024-03-23T08:15:30;10.90;;;3.05;;
51594;SDS011;37677;53.254;6.594;2024-03-23T08:17:58;9.88;;;2.17;;
51594;SDS011;37677;53.254;6.594;2024-03-23T08:20:24;11.13;;;2.47;;
51594;SDS011;37677;53.254;6.594;2024-03-23T08:22:50;6.90;;;2.50;;
51594;SDS011;37677;53.254;6.594;2024-03-23T08:25:16;6.72;;;2.55;;
51594;SDS011;37677;53.254;6.594;2024-03-23T08:27:44;10.30;;;3.17;;
51594;SDS011;37677;53.254;6.594;2024-03-23T08:30:10;10.70;;;2.75;;
51594;SDS011;37677;53.254;6.594;2024-03-23T08:32:36;8.45;;;2.60;;
51594;SDS011;37677;53.254;6.594;2024-03-23T08:35:02;9.00;;;2.60;;
51594;SDS011;37677;53.254;6.594;2024-03-23T08:37:29;6.72;;;2.70;;
51594;SDS011;37677;53.254;6.594;2024-03-23T08:39:55;14.32;;;3.17;;
51594;SDS011;37677;53.254;6.594;2024-03-23T08:42:21;8.15;;;2.58;;
51594;SDS011;37677;53.254;6.594;2024-03-23T08:44:47;7.32;;;2.33;;
51594;SDS011;37677;53.254;6.594;2024-03-23T08:47:16;10.23;;;2.80;;
51594;SDS011;37677;53.254;6.594;2024-03-23T08:49:42;9.70;;;2.70;;
51594;SDS011;37677;53.254;6.594;2024-03-23T08:52:08;10.45;;;3.00;;
51594;SDS011;37677;53.254;6.594;2024-03-23T08:54:34;7.93;;;2.13;;
51594;SDS011;37677;53.254;6.594;2024-03-23T08:57:00;11.23;;;3.20;;
51594;SDS011;37677;53.254;6.594;2024-03-23T08:59:26;13.13;;;3.97;;
51594;SDS011;37677;53.254;6.594;2024-03-23T09:01:52;14.57;;;4.03;;
51594;SDS011;37677;53.254;6.594;2024-03-23T09:04:19;12.82;;;3.50;;
51594;SDS011;37677;53.254;6.594;2024-03-23T09:06:45;11.02;;;3.28;;
51594;SDS011;37677;53.254;6.594;2024-03-23T09:09:11;11.00;;;3.65;;
51594;SDS011;37677;53.254;6.594;2024-03-23T09:11:40;15.07;;;3.97;;
51594;SDS011;37677;53.254;6.594;2024-03-23T09:14:09;15.95;;;3.75;;
51594;SDS011;37677;53.254;6.594;2024-03-23T09:16:35;15.48;;;3.47;;
51594;SDS011;37677;53.254;6.594;2024-03-23T09:19:01;13.73;;;3.88;;
51594;SDS011;37677;53.254;6.594;2024-03-23T09:21:28;14.15;;;3.33;;
51594;SDS011;37677;53.254;6.594;2024-03-23T09:23:54;17.58;;;3.72;;
51594;SDS011;37677;53.254;6.594;2024-03-23T09:26:20;13.38;;;3.58;;
51594;SDS011;37677;53.254;6.594;2024-03-23T09:28:48;9.98;;;3.03;;
51594;SDS011;37677;53.254;6.594;2024-03-23T09:31:17;12.20;;;3.50;;
51594;SDS011;37677;53.254;6.594;2024-03-23T09:33:43;13.82;;;4.03;;
51594;SDS011;37677;53.254;6.594;2024-03-23T09:36:09;14.75;;;3.92;;
51594;SDS011;37677;53.254;6.594;2024-03-23T09:38:35;9.75;;;3.00;;
51594;SDS011;37677;53.254;6.594;2024-03-23T09:41:06;9.27;;;2.80;;
51594;SDS011;37677;53.254;6.594;2024-03-23T09:43:32;10.40;;;3.20;;
51594;SDS011;37677;53.254;6.594;2024-03-23T09:45:58;15.95;;;3.78;;
51594;SDS011;37677;53.254;6.594;2024-03-23T09:48:24;11.45;;;3.15;;
51594;SDS011;37677;53.254;6.594;2024-03-23T09:50:51;11.75;;;3.08;;
51594;SDS011;37677;53.254;6.594;2024-03-23T09:53:17;14.00;;;3.42;;
51594;SDS011;37677;53.254;6.594;2024-03-23T09:55:44;9.38;;;2.85;;
51594;SDS011;37677;53.254;6.594;2024-03-23T09:58:14;11.30;;;2.70;;
51594;SDS011;37677;53.254;6.594;2024-03-23T10:00:40;8.80;;;2.80;;
51594;SDS011;37677;53.254;6.594;2024-03-23T10:03:06;11.18;;;2.55;;
51594;SDS011;37677;53.254;6.594;2024-03-23T10:05:33;9.38;;;2.40;;
51594;SDS011;37677;53.254;6.594;2024-03-23T10:08:00;8.82;;;2.28;;
51594;SDS011;37677;53.254;6.594;2024-03-23T10:10:26;6.80;;;2.10;;
51594;SDS011;37677;53.254;6.594;2024-03-23T10:12:52;5.63;;;2.50;;
51594;SDS011;37677;53.254;6.594;2024-03-23T10:15:19;6.63;;;2.08;;
51594;SDS011;37677;53.254;6.594;2024-03-23T10:17:45;8.07;;;1.75;;
51594;SDS011;37677;53.254;6.594;2024-03-23T10:20:12;7.07;;;2.40;;
51594;SDS011;37677;53.254;6.594;2024-03-23T10:22:38;8.32;;;2.25;;
51594;SDS011;37677;53.254;6.594;2024-03-23T10:25:08;10.40;;;2.88;;
51594;SDS011;37677;53.254;6.594;2024-03-23T10:27:34;13.23;;;3.22;;
51594;SDS011;37677;53.254;6.594;2024-03-23T10:30:07;11.10;;;3.15;;
51594;SDS011;37677;53.254;6.594;2024-03-23T10:32:34;16.00;;;3.38;;
51594;SDS011;37677;53.254;6.594;2024-03-23T10:35:19;11.05;;;2.88;;
51594;SDS011;37677;53.254;6.594;2024-03-23T10:37:49;13.68;;;3.22;;
51594;SDS011;37677;53.254;6.594;2024-03-23T10:40:15;11.65;;;4.03;;
51594;SDS011;37677;53.254;6.594;2024-03-23T10:42:41;11.00;;;3.05;;
51594;SDS011;37677;53.254;6.594;2024-03-23T10:45:08;14.32;;;4.75;;
51594;SDS011;37677;53.254;6.594;2024-03-23T10:47:34;14.18;;;4.18;;
51594;SDS011;37677;53.254;6.594;2024-03-23T10:50:04;14.40;;;3.83;;
51594;SDS011;37677;53.254;6.594;2024-03-23T10:52:33;15.50;;;3.95;;
51594;SDS011;37677;53.254;6.594;2024-03-23T10:55:04;12.15;;;3.70;;
51594;SDS011;37677;53.254;6.594;2024-03-23T10:57:40;12.30;;;3.38;;
51594;SDS011;37677;53.254;6.594;2024-03-23T11:02:33;11.98;;;3.42;;
51594;SDS011;37677;53.254;6.594;2024-03-23T11:04:59;12.73;;;3.42;;
51594;SDS011;37677;53.254;6.594;2024-03-23T11:09:52;8.05;;;2.60;;
51594;SDS011;37677;53.254;6.594;2024-03-23T11:12:37;11.23;;;2.83;;
51594;SDS011;37677;53.254;6.594;2024-03-23T11:15:04;10.38;;;2.80;;
51594;SDS011;37677;53.254;6.594;2024-03-23T11:17:30;7.90;;;2.70;;
51594;SDS011;37677;53.254;6.594;2024-03-23T11:20:00;10.23;;;2.88;;
51594;SDS011;37677;53.254;6.594;2024-03-23T11:22:42;12.80;;;4.25;;
51594;SDS011;37677;53.254;6.594;2024-03-23T11:27:38;9.55;;;2.75;;
51594;SDS011;37677;53.254;6.594;2024-03-23T11:30:11;8.10;;;2.30;;
51594;SDS011;37677;53.254;6.594;2024-03-23T11:32:37;12.05;;;3.33;;
51594;SDS011;37677;53.254;6.594;2024-03-23T11:35:04;9.88;;;3.05;;
51594;SDS011;37677;53.254;6.594;2024-03-23T11:37:30;9.30;;;2.30;;
51594;SDS011;37677;53.254;6.594;2024-03-23T11:39:56;7.03;;;2.92;;
51594;SDS011;37677;53.254;6.594;2024-03-23T11:42:22;9.55;;;2.80;;
51594;SDS011;37677;53.254;6.594;2024-03-23T11:44:48;9.85;;;3.17;;
51594;SDS011;37677;53.254;6.594;2024-03-23T11:47:14;11.38;;;2.90;;
51594;SDS011;37677;53.254;6.594;2024-03-23T11:49:40;10.40;;;2.80;;
51594;SDS011;37677;53.254;6.594;2024-03-23T11:52:07;10.75;;;3.75;;
51594;SDS011;37677;53.254;6.594;2024-03-23T11:54:33;12.25;;;3.25;;
51594;SDS011;37677;53.254;6.594;2024-03-23T11:57:00;8.73;;;3.13;;
51594;SDS011;37677;53.254;6.594;2024-03-23T11:59:35;11.85;;;3.90;;
51594;SDS011;37677;53.254;6.594;2024-03-23T12:02:06;8.77;;;2.80;;
51594;SDS011;37677;53.254;6.594;2024-03-23T12:04:32;11.25;;;2.92;;
51594;SDS011;37677;53.254;6.594;2024-03-23T12:07:11;15.10;;;3.05;;
51594;SDS011;37677;53.254;6.594;2024-03-23T12:09:37;9.88;;;3.22;;
51594;SDS011;37677;53.254;6.594;2024-03-23T12:12:11;12.10;;;3.47;;
51594;SDS011;37677;53.254;6.594;2024-03-23T12:14:40;10.75;;;3.65;;
51594;SDS011;37677;53.254;6.594;2024-03-23T12:17:07;12.13;;;3.40;;
51594;SDS011;37677;53.254;6.594;2024-03-23T12:19:33;10.48;;;3.20;;
51594;SDS011;37677;53.254;6.594;2024-03-23T12:21:59;11.75;;;3.03;;
51594;SDS011;37677;53.254;6.594;2024-03-23T12:24:26;14.30;;;3.30;;
51594;SDS011;37677;53.254;6.594;2024-03-23T12:26:52;10.05;;;2.85;;
51594;SDS011;37677;53.254;6.594;2024-03-23T12:29:18;10.48;;;3.25;;
51594;SDS011;37677;53.254;6.594;2024-03-23T12:31:45;13.23;;;2.92;;
51594;SDS011;37677;53.254;6.594;2024-03-23T12:34:11;12.27;;;2.78;;
51594;SDS011;37677;53.254;6.594;2024-03-23T12:36:37;10.55;;;2.85;;
51594;SDS011;37677;53.254;6.594;2024-03-23T12:39:04;9.85;;;2.72;;
51594;SDS011;37677;53.254;6.594;2024-03-23T12:41:30;6.07;;;2.10;;
51594;SDS011;37677;53.254;6.594;2024-03-23T12:43:56;4.47;;;2.03;;
51594;SDS011;37677;53.254;6.594;2024-03-23T12:46:22;7.28;;;2.95;;
51594;SDS011;37677;53.254;6.594;2024-03-23T12:48:48;8.80;;;2.50;;
51594;SDS011;37677;53.254;6.594;2024-03-23T12:51:14;9.45;;;2.42;;
51594;SDS011;37677;53.254;6.594;2024-03-23T12:53:40;7.72;;;2.60;;
51594;SDS011;37677;53.254;6.594;2024-03-23T12:56:06;9.20;;;2.95;;
51594;SDS011;37677;53.254;6.594;2024-03-23T12:58:32;8.88;;;3.10;;
51594;SDS011;37677;53.254;6.594;2024-03-23T13:00:58;9.25;;;2.92;;
51594;SDS011;37677;53.254;6.594;2024-03-23T13:03:25;10.13;;;3.00;;
51594;SDS011;37677;53.254;6.594;2024-03-23T13:05:51;9.25;;;2.50;;
51594;SDS011;37677;53.254;6.594;2024-03-23T13:08:18;8.00;;;2.25;;
51594;SDS011;37677;53.254;6.594;2024-03-23T13:10:44;13.45;;;3.47;;
51594;SDS011;37677;53.254;6.594;2024-03-23T13:13:10;6.97;;;2.53;;
51594;SDS011;37677;53.254;6.594;2024-03-23T13:15:36;10.38;;;2.90;;
51594;SDS011;37677;53.254;6.594;2024-03-23T13:18:02;13.70;;;2.95;;
51594;SDS011;37677;53.254;6.594;2024-03-23T13:20:28;12.57;;;4.00;;
51594;SDS011;37677;53.254;6.594;2024-03-23T13:22:54;10.30;;;3.40;;
51594;SDS011;37677;53.254;6.594;2024-03-23T13:25:20;13.07;;;3.28;;
51594;SDS011;37677;53.254;6.594;2024-03-23T13:27:46;9.88;;;3.13;;
51594;SDS011;37677;53.254;6.594;2024-03-23T13:30:12;12.02;;;3.92;;
51594;SDS011;37677;53.254;6.594;2024-03-23T13:32:38;13.48;;;3.15;;
51594;SDS011;37677;53.254;6.594;2024-03-23T13:35:04;9.38;;;3.53;;
51594;SDS011;37677;53.254;6.594;2024-03-23T13:37:31;9.85;;;2.83;;
51594;SDS011;37677;53.254;6.594;2024-03-23T13:39:57;14.02;;;4.20;;
51594;SDS011;37677;53.254;6.594;2024-03-23T13:42:23;9.38;;;3.53;;
51594;SDS011;37677;53.254;6.594;2024-03-23T13:44:51;7.80;;;2.80;;
51594;SDS011;37677;53.254;6.594;2024-03-23T13:47:17;7.78;;;2.47;;
51594;SDS011;37677;53.254;6.594;2024-03-23T13:49:43;11.05;;;2.65;;
51594;SDS011;37677;53.254;6.594;2024-03-23T13:52:10;8.35;;;2.30;;
51594;SDS011;37677;53.254;6.594;2024-03-23T13:54:36;6.03;;;2.15;;
51594;SDS011;37677;53.254;6.594;2024-03-23T13:57:05;11.57;;;3.13;;
51594;SDS011;37677;53.254;6.594;2024-03-23T13:59:31;13.20;;;3.58;;
51594;SDS011;37677;53.254;6.594;2024-03-23T14:01:57;12.70;;;3.17;;
51594;SDS011;37677;53.254;6.594;2024-03-23T14:04:23;9.10;;;2.95;;
51594;SDS011;37677;53.254;6.594;2024-03-23T14:06:50;9.20;;;3.10;;
51594;SDS011;37677;53.254;6.594;2024-03-23T14:09:16;6.90;;;2.15;;
51594;SDS011;37677;53.254;6.594;2024-03-23T14:11:46;6.53;;;1.77;;
51594;SDS011;37677;53.254;6.594;2024-03-23T14:14:12;5.88;;;2.45;;
51594;SDS011;37677;53.254;6.594;2024-03-23T14:16:41;7.05;;;2.35;;
51594;SDS011;37677;53.254;6.594;2024-03-23T14:19:08;10.38;;;3.45;;
51594;SDS011;37677;53.254;6.594;2024-03-23T14:21:34;10.60;;;3.13;;
51594;SDS011;37677;53.254;6.594;2024-03-23T14:24:00;8.63;;;3.05;;
51594;SDS011;37677;53.254;6.594;2024-03-23T14:26:27;8.02;;;2.42;;
51594;SDS011;37677;53.254;6.594;2024-03-23T14:28:53;5.10;;;2.20;;
51594;SDS011;37677;53.254;6.594;2024-03-23T14:31:19;12.85;;;2.40;;
51594;SDS011;37677;53.254;6.594;2024-03-23T14:33:45;8.27;;;2.95;;
51594;SDS011;37677;53.254;6.594;2024-03-23T14:36:15;10.73;;;3.83;;
51594;SDS011;37677;53.254;6.594;2024-03-23T14:38:42;11.55;;;3.08;;
51594;SDS011;37677;53.254;6.594;2024-03-23T14:41:08;8.10;;;3.30;;
51594;SDS011;37677;53.254;6.594;2024-03-23T14:43:34;10.18;;;3.55;;
51594;SDS011;37677;53.254;6.594;2024-03-23T14:46:11;5.53;;;2.45;;
51594;SDS011;37677;53.254;6.594;2024-03-23T14:48:41;10.63;;;3.38;;
51594;SDS011;37677;53.254;6.594;2024-03-23T14:51:08;8.30;;;2.75;;
51594;SDS011;37677;53.254;6.594;2024-03-23T14:53:35;10.13;;;2.92;;
51594;SDS011;37677;53.254;6.594;2024-03-23T14:56:02;12.25;;;3.30;;
51594;SDS011;37677;53.254;6.594;2024-03-23T14:58:29;9.90;;;3.10;;
51594;SDS011;37677;53.254;6.594;2024-03-23T15:01:02;11.77;;;3.65;;
51594;SDS011;37677;53.254;6.594;2024-03-23T15:03:28;8.82;;;3.05;;
51594;SDS011;37677;53.254;6.594;2024-03-23T15:05:55;13.02;;;3.70;;
51594;SDS011;37677;53.254;6.594;2024-03-23T15:08:21;12.60;;;3.58;;
51594;SDS011;37677;53.254;6.594;2024-03-23T15:10:48;13.43;;;3.53;;
51594;SDS011;37677;53.254;6.594;2024-03-23T15:13:14;7.88;;;3.30;;
51594;SDS011;37677;53.254;6.594;2024-03-23T15:15:40;14.05;;;3.70;;
51594;SDS011;37677;53.254;6.594;2024-03-23T15:18:10;7.78;;;2.97;;
51594;SDS011;37677;53.254;6.594;2024-03-23T15:20:37;11.40;;;2.85;;
51594;SDS011;37677;53.254;6.594;2024-03-23T15:23:04;11.32;;;2.88;;
51594;SDS011;37677;53.254;6.594;2024-03-23T15:25:30;8.98;;;2.47;;
51594;SDS011;37677;53.254;6.594;2024-03-23T15:27:57;8.20;;;2.70;;
51594;SDS011;37677;53.254;6.594;2024-03-23T15:30:25;11.90;;;3.20;;
51594;SDS011;37677;53.254;6.594;2024-03-23T15:32:51;7.75;;;2.90;;
51594;SDS011;37677;53.254;6.594;2024-03-23T15:35:18;11.40;;;3.15;;
51594;SDS011;37677;53.254;6.594;2024-03-23T15:37:46;8.45;;;2.75;;